パリ/シャルル・ド・ゴール の空港の天気 - METARとTAF

シャルル・ド・ゴール国際空港(パリ) ( LFPG / CDG ) - フランス Paris
飛行場実況気象(Metar)
観測時間12/09 15:00 CET (12/09 14:00 UTC)
風向・風速北北西 8m/s
視程10km以上
天気現象弱いしゅう雨
全天の8割程度の雲 雲底高度 790m
全天の4割程度の雲 雲底高度 1010m
気温8℃
湿度81%
気圧1013hPa
METARLFPG 091400Z 34015KT 9999 -SHRA BKN026 SCT033 08/05 Q1013 TEMPO 32020G35KT 4000 SHRA SCT020TCU BKN030
過去の天気等 Google飛行場航空写真 Wunderground天気予報

過去48時間のMETAR

飛行場予報(TAF)
発表時間: 12/09 12:00 CET (12/09 11:00 UTC)
予報対象時間: 9日13時 CET ~ 10日19時 CET
風向・風速北西 8m/s 瞬間風速 13m/s
視程10km以上
全天の4割程度の雲 雲底高度 910m
9日13時 CET ~ 9日16時 CET に 確率 40% で一時的に
風向・風速北西 10m/s 瞬間風速 18m/s
視程4000m
天気現象しゅう雨
全天の4割程度の塔状積雲 雲底高度 610m
全天の8割程度の雲 雲底高度 910m
9日20時 CET ~ 9日22時 CET に徐々に
風向・風速西北西 5m/s
視程10km以上
なし
10日1時 CET ~ 10日4時 CET に徐々に
風向・風速南西 2m/s
10日5時 CET から 確率 30% で
視程4000m
天気現象もや
10日17時 CET ~ 10日19時 CET に一時的に
風向・風速南 8m/s 瞬間風速 13m/s
TAF LFPG 091100Z 0912/1018 31015G25KT 9999 SCT030 TX09/0912Z TN00/1005Z
PROB40 TEMPO 0912/0915 32020G35KT 4000 SHRA SCT020TCU BKN030
BECMG 0919/0921 30010KT CAVOK
BECMG 1000/1003 22003KT
PROB30 1004/1007 4000 BR
TEMPO 1016/1018 19015G25KT